Time;durP1;ratioP1;P1;durP2;ratioP2;P2;SDS_P1;SDS_P2;PMS_P1;PMS_P2;Temp;Humidity;BMP_temperature;BMP_pressure;BME280_temperature;BME280_humidity;BME280_pressure;Samples;Min_cycle;Max_cycle;Signal;HPM_P1;HPM_P2
2023/05/27 00:01:50;;;;;;;8.60;6.00;;;16.90;88.60;;;;;;10269827;28;20243;-82
2023/05/27 00:06:52;;;;;;;8.30;5.53;;;16.90;87.50;;;;;;10249286;28;20240;-80
2023/05/27 00:11:54;;;;;;;6.67;5.97;;;16.90;88.60;;;;;;10281271;28;20241;-81
2023/05/27 00:16:59;;;;;;;7.13;5.20;;;16.90;89.20;;;;;;10281265;28;20236;-81
2023/05/27 00:22:01;;;;;;;8.20;6.00;;;16.90;88.30;;;;;;10277328;28;20713;-81
2023/05/27 00:27:03;;;;;;;7.13;5.37;;;16.90;89.20;;;;;;10280464;28;20582;-81
2023/05/27 00:32:07;;;;;;;9.90;6.13;;;17.00;90.00;;;;;;10284294;28;20204;-81
2023/05/27 00:37:09;;;;;;;6.60;5.27;;;16.90;89.20;;;;;;10276453;28;20385;-81
2023/05/27 00:42:14;;;;;;;9.80;4.80;;;16.90;89.60;;;;;;10276542;28;20256;-81
2023/05/27 00:47:18;;;;;;;7.87;5.10;;;16.90;89.70;;;;;;10282165;28;20208;-81
2023/05/27 00:52:20;;;;;;;8.73;4.80;;;16.80;89.60;;;;;;10284652;28;20360;-82
2023/05/27 00:57:22;;;;;;;6.50;5.90;;;16.80;88.90;;;;;;10274663;28;20244;-82
2023/05/27 01:02:26;;;;;;;9.07;5.70;;;16.80;89.50;;;;;;10275793;28;20239;-82
2023/05/27 01:07:36;;;;;;;5.93;5.27;;;16.70;89.50;;;;;;10279063;28;20213;-79
2023/05/27 01:12:45;;;;;;;5.63;5.13;;;16.60;89.90;;;;;;10270839;28;20327;-81
2023/05/27 01:17:51;;;;;;;7.10;4.80;;;16.60;89.80;;;;;;10288825;28;20832;-80
2023/05/27 01:22:57;;;;;;;6.60;4.80;;;16.60;90.10;;;;;;10273022;28;20233;-80
2023/05/27 01:27:59;;;;;;;6.87;5.20;;;16.50;90.00;;;;;;10284297;28;20272;-81
2023/05/27 01:33:08;;;;;;;9.40;5.13;;;16.40;89.40;;;;;;10277064;28;20252;-82
2023/05/27 01:38:15;;;;;;;8.50;4.73;;;16.40;89.20;;;;;;10282142;28;20220;-81
2023/05/27 01:43:19;;;;;;;9.50;5.47;;;16.30;90.00;;;;;;10274079;28;20308;-83
2023/05/27 01:48:21;;;;;;;8.57;5.10;;;16.20;89.10;;;;;;10255820;28;20208;-83
2023/05/27 01:53:25;;;;;;;11.20;5.40;;;16.20;90.30;;;;;;10275549;28;20233;-81
2023/05/27 01:58:27;;;;;;;19.93;6.10;;;16.20;90.50;;;;;;10281130;28;20260;-81
2023/05/27 02:03:29;;;;;;;8.80;4.70;;;16.10;90.60;;;;;;10295036;28;20706;-80
2023/05/27 02:08:33;;;;;;;7.57;5.50;;;16.10;90.00;;;;;;10277742;28;20541;-82
2023/05/27 02:13:37;;;;;;;7.40;5.80;;;16.00;90.10;;;;;;10274485;28;20235;-81
2023/05/27 02:18:40;;;;;;;8.00;4.87;;;16.00;90.10;;;;;;10274361;28;20232;-81
2023/05/27 02:23:44;;;;;;;9.43;5.93;;;15.90;90.50;;;;;;10315927;28;20212;-82
2023/05/27 02:28:46;;;;;;;8.53;5.00;;;15.90;90.60;;;;;;10326827;28;20524;-81
2023/05/27 02:33:48;;;;;;;9.50;5.37;;;15.80;90.70;;;;;;10297722;28;20220;-82
2023/05/27 02:38:51;;;;;;;9.50;5.67;;;15.80;90.70;;;;;;10324604;28;20209;-79
2023/05/27 02:43:53;;;;;;;10.60;5.33;;;15.80;90.60;;;;;;10331256;28;20688;-82
2023/05/27 02:48:55;;;;;;;10.17;5.47;;;15.70;90.60;;;;;;10292476;28;20228;-82
2023/05/27 02:53:59;;;;;;;7.13;5.30;;;15.70;90.60;;;;;;10330474;28;20247;-80
2023/05/27 02:59:01;;;;;;;9.27;5.67;;;15.70;90.90;;;;;;10304950;28;20307;-84
2023/05/27 03:04:03;;;;;;;6.57;4.73;;;15.60;91.00;;;;;;10375152;23;20238;-83
2023/05/27 03:09:08;;;;;;;11.33;5.90;;;15.60;90.80;;;;;;10473751;28;20201;-84
2023/05/27 03:14:11;;;;;;;8.63;5.27;;;15.60;91.00;;;;;;10469270;28;20268;-84
2023/05/27 03:19:13;;;;;;;12.07;5.30;;;15.50;91.00;;;;;;10434559;28;20590;-84
2023/05/27 03:24:17;;;;;;;10.90;5.50;;;15.50;91.20;;;;;;10448292;28;20225;-84
2023/05/27 03:29:19;;;;;;;9.40;6.13;;;15.50;90.80;;;;;;10460473;28;20241;-84
2023/05/27 03:34:23;;;;;;;7.60;5.50;;;15.40;90.70;;;;;;10445454;28;20222;-84
2023/05/27 03:39:26;;;;;;;12.03;5.67;;;15.40;91.00;;;;;;10449392;28;20217;-84
2023/05/27 03:44:34;;;;;;;10.70;5.60;;;15.40;91.00;;;;;;10440964;28;20309;-83
2023/05/27 03:49:36;;;;;;;10.17;5.90;;;15.30;91.20;;;;;;10409862;28;20295;-83
2023/05/27 03:54:40;;;;;;;9.07;6.17;;;15.30;91.10;;;;;;10425087;28;20591;-84
2023/05/27 03:59:42;;;;;;;8.60;5.27;;;15.30;91.30;;;;;;10444564;28;20226;-84
2023/05/27 04:04:46;;;;;;;9.30;4.80;;;15.30;90.70;;;;;;10399453;28;20238;-84
2023/05/27 04:09:49;;;;;;;10.97;5.67;;;15.30;90.80;;;;;;10430253;28;20233;-84
2023/05/27 04:14:51;;;;;;;10.33;5.53;;;15.30;91.80;;;;;;10434356;28;20250;-85
2023/05/27 04:19:54;;;;;;;6.83;4.83;;;15.30;91.40;;;;;;10406791;28;20696;-85
2023/05/27 04:24:58;;;;;;;18.90;6.20;;;15.20;91.60;;;;;;10436524;28;20327;-85
2023/05/27 04:30:02;;;;;;;11.73;5.47;;;15.20;91.70;;;;;;10466243;28;20552;-84
2023/05/27 04:35:07;;;;;;;11.10;6.13;;;15.30;92.20;;;;;;10477116;28;20210;-84
2023/05/27 04:40:12;;;;;;;9.33;4.80;;;15.30;91.90;;;;;;10454889;28;20634;-84
2023/05/27 04:45:34;;;;;;;9.43;5.07;;;15.30;92.40;;;;;;10444417;28;20242;-84
2023/05/27 04:50:37;;;;;;;8.40;5.20;;;15.40;92.10;;;;;;10421460;28;20744;-84
2023/05/27 04:55:41;;;;;;;10.20;6.00;;;15.40;92.10;;;;;;10436241;28;20222;-84
2023/05/27 05:00:52;;;;;;;11.40;6.03;;;15.40;92.60;;;;;;10461325;28;20222;-84
2023/05/27 05:05:55;;;;;;;9.23;5.97;;;15.40;93.20;;;;;;10441842;28;20312;-84
2023/05/27 05:11:00;;;;;;;10.97;5.37;;;15.50;92.60;;;;;;10435691;28;20207;-84
2023/05/27 05:16:02;;;;;;;9.83;5.80;;;15.50;92.80;;;;;;10409749;28;20698;-84
2023/05/27 05:21:04;;;;;;;11.03;5.80;;;15.60;92.90;;;;;;10422612;28;20230;-84
2023/05/27 05:26:16;;;;;;;9.67;4.30;;;15.60;93.00;;;;;;10438973;28;20301;-84
2023/05/27 05:31:20;;;;;;;12.40;5.50;;;15.70;93.20;;;;;;10450229;28;20204;-81
2023/05/27 05:36:24;;;;;;;11.63;5.60;;;15.80;92.90;;;;;;10456442;28;20245;-85
2023/05/27 05:41:32;;;;;;;8.97;6.00;;;15.90;92.00;;;;;;10456615;28;20229;-85
2023/05/27 05:46:34;;;;;;;9.07;5.73;;;16.00;92.40;;;;;;10438325;28;20222;-85
2023/05/27 05:51:37;;;;;;;9.93;5.00;;;16.10;91.50;;;;;;10447243;28;20205;-85
2023/05/27 05:56:40;;;;;;;11.30;5.70;;;16.20;91.40;;;;;;10456129;28;20218;-86
2023/05/27 06:01:43;;;;;;;9.40;6.07;;;16.30;92.20;;;;;;10440822;28;20297;-86
2023/05/27 06:06:45;;;;;;;11.27;5.97;;;16.40;92.10;;;;;;10439255;28;20320;-86
2023/05/27 06:12:00;;;;;;;9.83;5.57;;;16.50;92.00;;;;;;10444679;28;20209;-86
2023/05/27 06:17:08;;;;;;;17.80;6.07;;;16.60;91.70;;;;;;10400262;28;20222;-85
2023/05/27 06:22:10;;;;;;;7.10;5.00;;;16.70;91.00;;;;;;10445980;28;20613;-86
2023/05/27 06:27:51;;;;;;;9.93;5.37;;;16.80;91.50;;;;;;10429367;28;20206;-85
2023/05/27 06:32:53;;;;;;;10.20;5.40;;;16.90;90.00;;;;;;10408077;28;20219;-84
2023/05/27 06:37:59;;;;;;;9.27;5.60;;;17.00;90.70;;;;;;10412090;28;20226;-84
2023/05/27 06:43:03;;;;;;;9.00;5.20;;;17.20;90.30;;;;;;10463360;28;20229;-84
2023/05/27 06:48:05;;;;;;;9.23;5.73;;;17.40;91.40;;;;;;10421340;28;20214;-84
2023/05/27 06:53:10;;;;;;;10.93;5.60;;;17.60;89.80;;;;;;10455456;28;20240;-84
2023/05/27 06:58:35;;;;;;;9.23;6.00;;;17.80;89.20;;;;;;10434804;28;20202;-84
2023/05/27 07:03:42;;;;;;;8.03;4.47;;;18.00;91.00;;;;;;10416962;28;20347;-85
2023/05/27 07:30:48;;;;;;;9.93;4.97;;;18.90;89.10;;;;;;10307006;28;20242;-80
2023/05/27 07:35:50;;;;;;;7.40;4.70;;;19.20;88.70;;;;;;10335362;28;20303;-81
2023/05/27 08:13:29;;;;;;;8.50;5.10;;;20.50;85.10;;;;;;10428848;23;20535;-87
2023/05/27 08:18:54;;;;;;;8.47;5.20;;;20.70;86.70;;;;;;10314012;28;20230;-89
2023/05/27 08:24:05;;;;;;;6.40;4.50;;;21.40;81.90;;;;;;10345093;28;20233;-90
2023/05/27 08:29:27;;;;;;;8.57;4.50;;;22.30;84.70;;;;;;10353751;28;20200;-90
2023/05/27 08:34:53;;;;;;;9.33;4.87;;;23.10;84.00;;;;;;10304783;28;20574;-90
2023/05/27 08:39:58;;;;;;;8.20;6.20;;;23.80;80.20;;;;;;10335265;28;20585;-89
2023/05/27 08:45:18;;;;;;;8.30;5.00;;;24.30;73.70;;;;;;10302806;28;20219;-91
2023/05/27 08:50:21;;;;;;;6.83;5.30;;;24.70;74.70;;;;;;10357009;28;20635;-89
2023/05/27 08:55:24;;;;;;;8.47;5.20;;;24.90;71.70;;;;;;10341652;28;20316;-89
2023/05/27 09:00:30;;;;;;;7.73;5.03;;;25.20;73.00;;;;;;10392124;28;20221;-89
2023/05/27 09:05:40;;;;;;;8.87;5.10;;;25.40;69.90;;;;;;10366372;28;20286;-89
2023/05/27 09:10:43;;;;;;;9.40;4.73;;;25.60;72.30;;;;;;10366447;28;20253;-90
2023/05/27 09:15:47;;;;;;;10.40;5.70;;;25.80;73.00;;;;;;10332631;28;20294;-89
2023/05/27 09:20:49;;;;;;;7.70;5.30;;;26.10;69.80;;;;;;10293168;28;20223;-90
2023/05/27 09:25:51;;;;;;;13.10;5.33;;;26.10;74.30;;;;;;10322776;28;20968;-89
2023/05/27 09:31:01;;;;;;;6.83;5.17;;;26.20;72.40;;;;;;10325783;28;20192;-88
2023/05/27 09:36:04;;;;;;;12.40;5.37;;;26.40;71.20;;;;;;10319459;28;20704;-86
2023/05/27 09:41:09;;;;;;;5.27;4.70;;;26.50;71.20;;;;;;10316755;28;20228;-85
2023/05/27 09:46:15;;;;;;;8.97;5.73;;;26.70;72.90;;;;;;10322318;28;20567;-86
2023/05/27 09:51:17;;;;;;;9.00;6.13;;;26.80;69.80;;;;;;10354096;28;20203;-86
2023/05/27 09:56:19;;;;;;;8.03;5.80;;;27.00;74.90;;;;;;10335796;28;20676;-86
2023/05/27 10:01:25;;;;;;;7.23;5.53;;;27.20;71.20;;;;;;10323409;28;20283;-86
2023/05/27 10:06:28;;;;;;;5.20;4.70;;;27.40;69.80;;;;;;10320597;28;20290;-86
2023/05/27 10:11:32;;;;;;;10.47;6.20;;;27.70;70.00;;;;;;10318821;28;20224;-86
2023/05/27 10:16:36;;;;;;;5.93;5.23;;;28.20;71.30;;;;;;10343680;28;20254;-86
2023/05/27 10:21:44;;;;;;;6.57;4.97;;;28.30;68.40;;;;;;10374231;28;20258;-86
2023/05/27 10:26:48;;;;;;;8.33;5.20;;;27.70;70.00;;;;;;10358312;28;20254;-86
2023/05/27 10:31:52;;;;;;;6.27;5.40;;;27.00;67.60;;;;;;10385271;28;20214;-86
2023/05/27 10:37:00;;;;;;;6.13;5.37;;;26.20;68.50;;;;;;10360283;28;20235;-86
2023/05/27 10:42:02;;;;;;;11.13;5.47;;;25.50;70.80;;;;;;10356792;28;20229;-86
2023/05/27 10:47:11;;;;;;;9.10;6.37;;;25.00;70.20;;;;;;10365097;28;20301;-86
2023/05/27 10:52:15;;;;;;;8.20;5.90;;;24.60;74.30;;;;;;10349518;28;20229;-84
2023/05/27 10:57:19;;;;;;;6.70;5.50;;;24.20;70.90;;;;;;10364403;28;20226;-84
2023/05/27 11:02:23;;;;;;;11.23;5.93;;;23.90;72.70;;;;;;10368798;28;20689;-84
2023/05/27 11:07:25;;;;;;;9.10;6.93;;;23.60;78.40;;;;;;10336142;28;20231;-84
2023/05/27 11:12:28;;;;;;;7.13;5.60;;;23.40;75.50;;;;;;10389942;28;20241;-84
2023/05/27 11:17:31;;;;;;;10.93;6.60;;;23.20;75.80;;;;;;10348668;28;20231;-84
2023/05/27 11:22:34;;;;;;;7.60;5.70;;;23.10;78.00;;;;;;10374935;28;20274;-86
2023/05/27 11:27:39;;;;;;;7.87;5.53;;;23.00;74.10;;;;;;10379293;28;20254;-86
2023/05/27 11:32:42;;;;;;;7.70;6.90;;;22.90;79.00;;;;;;10352130;28;20199;-84
2023/05/27 11:37:50;;;;;;;8.03;6.20;;;22.80;76.50;;;;;;10375286;28;20452;-85
2023/05/27 11:42:52;;;;;;;7.17;5.93;;;22.70;74.40;;;;;;10391437;28;20313;-85
2023/05/27 11:47:56;;;;;;;9.90;5.57;;;22.70;73.20;;;;;;10410137;28;20233;-86
2023/05/27 11:53:04;;;;;;;6.70;5.47;;;22.60;77.60;;;;;;10440750;28;20183;-83
2023/05/27 11:58:06;;;;;;;7.90;6.30;;;22.50;76.50;;;;;;10390489;28;20202;-87
2023/05/27 12:03:10;;;;;;;10.07;6.30;;;22.50;71.70;;;;;;10385209;28;20246;-87
2023/05/27 12:08:12;;;;;;;9.77;6.87;;;22.40;73.60;;;;;;10400549;28;20205;-86
2023/05/27 12:13:14;;;;;;;7.20;6.53;;;22.40;72.30;;;;;;10391245;28;20736;-86
2023/05/27 12:18:18;;;;;;;6.90;5.80;;;22.50;72.10;;;;;;10384343;28;20363;-86
2023/05/27 12:23:20;;;;;;;6.90;6.20;;;22.50;77.00;;;;;;10376667;28;20227;-87
2023/05/27 12:28:22;;;;;;;7.50;6.10;;;22.40;76.60;;;;;;10398566;28;20205;-87
2023/05/27 12:33:26;;;;;;;8.40;6.33;;;22.40;72.70;;;;;;10403347;28;20233;-86
2023/05/27 12:38:28;;;;;;;10.47;6.00;;;22.50;71.20;;;;;;10392644;28;20205;-87
2023/05/27 12:43:30;;;;;;;6.80;6.20;;;22.50;70.60;;;;;;10384274;28;20281;-86
2023/05/27 12:48:33;;;;;;;6.67;5.90;;;22.40;74.60;;;;;;10382500;28;20269;-86
2023/05/27 12:53:35;;;;;;;6.67;6.07;;;22.50;71.20;;;;;;10413356;28;20218;-86
2023/05/27 12:58:37;;;;;;;7.27;6.07;;;22.50;70.50;;;;;;10364103;28;20691;-86
2023/05/27 13:03:42;;;;;;;7.50;5.93;;;22.50;72.00;;;;;;10386381;28;20227;-86
2023/05/27 13:08:44;;;;;;;7.97;6.93;;;22.50;75.50;;;;;;10397195;28;20222;-86
2023/05/27 15:08:37;;;;;;;4.07;3.70;;;22.30;63.70;;;;;;10428870;28;20171;-87
2023/05/27 15:13:39;;;;;;;6.20;4.30;;;22.20;69.80;;;;;;10352154;28;20223;-87
2023/05/27 15:18:41;;;;;;;8.10;4.37;;;22.10;67.20;;;;;;10378107;28;20721;-87
2023/05/27 16:29:07;;;;;;;4.53;3.73;;;22.00;61.20;;;;;;10391786;28;20195;-86
2023/05/27 16:34:11;;;;;;;4.00;3.63;;;22.00;67.40;;;;;;10362168;28;20227;-86
2023/05/27 16:39:15;;;;;;;3.93;3.53;;;22.00;62.30;;;;;;10392815;28;20255;-85
2023/05/27 16:44:17;;;;;;;5.40;4.63;;;22.00;70.60;;;;;;10359222;28;20223;-85
2023/05/27 16:49:19;;;;;;;4.70;4.13;;;21.90;66.30;;;;;;10396328;28;20220;-86
2023/05/27 16:54:22;;;;;;;5.20;4.40;;;21.80;69.30;;;;;;10381211;28;20298;-86
2023/05/27 16:59:24;;;;;;;5.27;4.63;;;21.80;69.80;;;;;;10378736;28;20210;-86
2023/05/27 17:04:27;;;;;;;4.40;4.00;;;21.80;74.40;;;;;;10357015;28;20647;-85
2023/05/27 17:09:30;;;;;;;4.87;4.23;;;21.60;77.40;;;;;;10355266;28;20209;-88
2023/05/27 17:14:33;;;;;;;5.50;4.63;;;21.50;76.80;;;;;;10385752;28;20856;-87
2023/05/27 17:19:35;;;;;;;6.40;4.30;;;21.50;69.50;;;;;;10385547;28;20341;-88
2023/05/27 17:24:39;;;;;;;5.73;4.47;;;21.40;74.00;;;;;;10386320;28;20238;-88
2023/05/27 17:29:44;;;;;;;5.40;4.90;;;21.40;72.30;;;;;;10305939;28;20201;-87
2023/05/27 17:34:46;;;;;;;4.80;3.93;;;21.40;71.60;;;;;;10343851;28;20228;-87
2023/05/27 17:39:50;;;;;;;5.43;4.77;;;21.40;77.00;;;;;;10388314;28;20207;-88
2023/05/27 17:44:52;;;;;;;6.23;4.90;;;21.40;72.90;;;;;;10394493;28;20219;-88
2023/05/27 17:49:54;;;;;;;5.93;4.20;;;21.30;74.80;;;;;;10380710;28;20274;-88
2023/05/27 17:54:58;;;;;;;7.37;5.10;;;21.30;69.10;;;;;;10381153;28;20219;-87
2023/05/27 18:00:00;;;;;;;5.93;4.10;;;21.20;75.60;;;;;;10381094;28;20200;-87
2023/05/27 18:05:02;;;;;;;8.50;4.27;;;21.20;70.20;;;;;;10360250;28;20238;-87
2023/05/27 18:10:08;;;;;;;4.77;4.37;;;21.20;76.20;;;;;;10397483;28;20202;-87
2023/05/27 18:15:11;;;;;;;5.37;4.30;;;21.10;82.00;;;;;;10382332;28;20216;-87
2023/05/27 18:20:13;;;;;;;4.37;3.97;;;21.00;84.00;;;;;;10395592;28;20196;-87
2023/05/27 18:25:17;;;;;;;5.03;4.00;;;20.90;85.10;;;;;;10380767;28;20217;-87
2023/05/27 18:30:19;;;;;;;7.27;4.60;;;20.80;79.60;;;;;;10368905;28;20203;-87
2023/05/27 18:35:22;;;;;;;4.47;4.03;;;20.80;75.20;;;;;;10383168;28;20224;-88
2023/05/27 18:40:26;;;;;;;5.60;5.03;;;20.80;74.80;;;;;;10387751;28;20210;-88
2023/05/27 18:45:50;;;;;;;6.47;4.43;;;20.80;76.40;;;;;;10376312;28;20246;-87
2023/05/27 18:50:53;;;;;;;8.67;4.37;;;20.80;77.20;;;;;;10375627;28;20198;-88
2023/05/27 18:55:56;;;;;;;4.83;4.27;;;20.70;75.10;;;;;;10393249;28;20227;-88
2023/05/27 19:00:58;;;;;;;6.93;4.60;;;20.70;77.10;;;;;;10392903;28;20336;-88
2023/05/27 19:06:00;;;;;;;6.50;4.17;;;20.60;78.30;;;;;;10349995;28;20691;-87
2023/05/27 19:11:04;;;;;;;6.03;5.20;;;20.50;79.70;;;;;;10407162;28;20203;-88
2023/05/27 19:16:07;;;;;;;5.50;4.83;;;20.50;81.20;;;;;;10376378;28;20226;-88
2023/05/27 19:21:10;;;;;;;6.50;4.90;;;20.40;82.90;;;;;;10375296;28;20606;-89
2023/05/27 19:26:13;;;;;;;7.77;5.53;;;20.30;83.20;;;;;;10391525;28;20283;-88
2023/05/27 19:31:16;;;;;;;6.20;4.20;;;20.20;82.80;;;;;;10375694;28;20267;-88
2023/05/27 19:36:18;;;;;;;7.43;4.10;;;20.10;81.10;;;;;;10342461;28;20227;-88
2023/05/27 19:41:21;;;;;;;7.83;4.13;;;20.00;79.00;;;;;;10372815;28;20246;-88
2023/05/27 19:46:24;;;;;;;5.33;4.83;;;20.00;81.20;;;;;;10376781;28;20207;-88
2023/05/27 19:56:45;;;;;;;5.30;4.30;;;19.80;80.20;;;;;;11204910;22;20243;-89
2023/05/27 20:01:47;;;;;;;7.53;4.20;;;19.70;78.60;;;;;;10390678;28;20228;-88
2023/05/27 20:06:49;;;;;;;7.77;4.73;;;19.70;76.00;;;;;;10363480;28;20211;-88
2023/05/27 20:11:55;;;;;;;6.60;4.80;;;19.60;76.50;;;;;;10397013;28;20222;-89
2023/05/27 21:18:25;;;;;;;5.33;4.80;;;18.70;81.60;;;;;;10072257;29;20204;-85
2023/05/27 21:23:27;;;;;;;7.57;5.20;;;18.60;80.70;;;;;;10353782;23;20318;-85
2023/05/27 21:28:30;;;;;;;6.63;5.10;;;18.50;82.20;;;;;;10350249;28;20215;-85
2023/05/27 21:33:33;;;;;;;7.40;5.70;;;18.50;81.80;;;;;;10347040;28;20303;-85
2023/05/27 21:38:36;;;;;;;6.53;5.90;;;18.50;80.80;;;;;;10348273;28;20208;-86
2023/05/27 21:43:38;;;;;;;11.40;6.07;;;18.40;81.20;;;;;;10324789;28;20300;-87
2023/05/27 21:48:42;;;;;;;6.20;5.60;;;18.40;80.00;;;;;;10360575;28;20210;-85
2023/05/27 21:53:45;;;;;;;10.00;6.87;;;18.30;80.30;;;;;;10326066;28;20227;-86
2023/05/27 21:58:47;;;;;;;9.33;6.43;;;18.30;80.90;;;;;;10323588;28;20208;-85
2023/05/27 22:03:51;;;;;;;9.53;7.10;;;18.20;79.50;;;;;;10373199;28;20675;-85
2023/05/27 22:08:53;;;;;;;6.90;5.80;;;18.20;80.60;;;;;;10333132;28;20204;-85
2023/05/27 22:13:55;;;;;;;7.10;5.33;;;18.10;82.10;;;;;;10317289;28;20271;-86
2023/05/27 22:18:59;;;;;;;8.83;6.10;;;18.10;81.80;;;;;;10325118;28;20296;-85
2023/05/27 22:24:01;;;;;;;7.43;5.67;;;18.10;81.70;;;;;;10369608;28;20641;-88
2023/05/27 22:29:04;;;;;;;9.67;5.37;;;18.00;82.30;;;;;;10341077;28;20254;-86
2023/05/27 22:34:09;;;;;;;6.53;5.13;;;18.00;81.40;;;;;;10303255;28;20230;-85
2023/05/27 22:39:11;;;;;;;7.27;5.20;;;17.90;82.90;;;;;;10342179;28;20199;-86
2023/05/27 22:44:13;;;;;;;7.53;4.63;;;17.90;82.30;;;;;;10313571;28;20629;-87
2023/05/27 22:49:16;;;;;;;8.23;5.03;;;17.80;82.70;;;;;;10350039;28;20627;-88
2023/05/27 22:54:18;;;;;;;5.43;4.80;;;17.80;81.00;;;;;;10320580;28;20687;-87
2023/05/27 22:59:20;;;;;;;6.70;5.27;;;17.70;81.60;;;;;;10300826;28;20291;-87
2023/05/27 23:04:24;;;;;;;5.57;5.07;;;17.70;80.00;;;;;;10331621;28;20594;-86
2023/05/27 23:09:26;;;;;;;6.00;5.03;;;17.60;80.60;;;;;;10306179;28;20245;-86
2023/05/27 23:14:28;;;;;;;7.83;6.07;;;17.50;81.40;;;;;;10320776;28;20258;-86
2023/05/27 23:19:32;;;;;;;7.70;6.13;;;17.50;81.10;;;;;;10334289;28;20250;-86
2023/05/27 23:24:34;;;;;;;6.53;5.40;;;17.50;80.70;;;;;;10366566;28;20235;-87
2023/05/27 23:29:36;;;;;;;7.90;5.53;;;17.40;81.20;;;;;;10303247;28;20204;-87
2023/05/27 23:34:39;;;;;;;10.60;6.50;;;17.40;81.80;;;;;;10309126;28;20318;-87
2023/05/27 23:39:41;;;;;;;7.37;6.47;;;17.40;81.90;;;;;;10336754;28;20207;-86
2023/05/27 23:44:43;;;;;;;7.87;6.10;;;17.30;82.60;;;;;;10334996;28;20223;-87
2023/05/27 23:49:47;;;;;;;6.80;6.07;;;17.30;83.40;;;;;;10327194;28;20218;-87
2023/05/27 23:54:49;;;;;;;8.07;5.83;;;17.20;83.60;;;;;;10322745;28;20243;-85
2023/05/27 23:59:51;;;;;;;7.77;6.10;;;17.20;85.40;;;;;;10336370;28;20206;-86
